Time;durP1;ratioP1;P1;durP2;ratioP2;P2;SDS_P1;SDS_P2;PMS_P1;PMS_P2;Temp;Humidity;BMP_temperature;BMP_pressure;BME280_temperature;BME280_humidity;BME280_pressure;Samples;Min_cycle;Max_cycle;Signal;HPM_P1;HPM_P2
2021/01/09 00:01:38;;;;;;;7.78;6.97;;;;;;;2.77;73.95;100994.94;5068740;28;20093;-72
2021/01/09 00:04:05;;;;;;;7.07;6.45;;;;;;;2.75;73.05;100988.03;5075171;28;20046;-72
2021/01/09 00:06:40;;;;;;;9.43;7.80;;;;;;;2.74;73.58;100989.06;5053217;28;20035;-73
2021/01/09 00:09:07;;;;;;;10.32;8.93;;;;;;;2.66;72.74;100978.44;5027898;28;20028;-75
2021/01/09 00:11:33;;;;;;;12.32;9.10;;;;;;;2.64;73.32;100992.13;5060087;28;20045;-74
2021/01/09 00:13:59;;;;;;;12.32;8.95;;;;;;;2.65;73.33;100990.28;5042385;28;20389;-73
2021/01/09 00:16:25;;;;;;;7.43;6.72;;;;;;;2.60;73.16;100991.72;5026569;28;20032;-73
2021/01/09 00:18:53;;;;;;;10.18;7.78;;;;;;;2.64;73.19;101002.09;5050759;28;20580;-75
2021/01/09 00:21:19;;;;;;;9.68;7.35;;;;;;;2.60;72.79;101004.38;5042219;28;20583;-71
2021/01/09 00:23:45;;;;;;;6.55;6.05;;;;;;;2.60;73.17;101007.91;5061031;28;20036;-73
2021/01/09 00:26:10;;;;;;;7.70;5.38;;;;;;;2.59;73.76;101000.84;5020461;28;20478;-72
2021/01/09 00:28:36;;;;;;;7.75;7.07;;;;;;;2.59;73.14;101002.72;5026603;28;20051;-73
2021/01/09 00:31:01;;;;;;;9.70;7.80;;;;;;;2.60;73.09;101007.91;5023276;28;20037;-72
2021/01/09 00:33:27;;;;;;;10.57;7.50;;;;;;;2.58;73.07;101014.53;5054625;28;20027;-72
2021/01/09 00:35:56;;;;;;;11.95;8.88;;;;;;;2.59;73.15;101014.34;5064960;28;20475;-71
2021/01/09 00:38:22;;;;;;;6.43;5.93;;;;;;;2.54;72.75;101013.25;5031067;28;20442;-71
2021/01/09 00:40:48;;;;;;;6.57;6.13;;;;;;;2.60;72.89;101018.72;5056706;28;20108;-72
2021/01/09 00:43:13;;;;;;;5.97;5.38;;;;;;;2.60;74.01;101024.13;5036993;28;20036;-71
2021/01/09 00:45:38;;;;;;;4.85;3.78;;;;;;;2.61;73.71;101023.09;5048291;28;20470;-71
2021/01/09 00:48:04;;;;;;;8.00;7.28;;;;;;;2.60;73.08;101026.81;5015619;28;20058;-71
2021/01/09 00:50:29;;;;;;;7.30;6.60;;;;;;;2.58;72.46;101026.16;5043314;28;20052;-71
2021/01/09 00:52:55;;;;;;;6.28;4.72;;;;;;;2.53;72.95;101017.84;5076005;28;20101;-71
2021/01/09 00:55:20;;;;;;;3.80;3.50;;;;;;;2.55;73.19;101028.44;5070233;28;20036;-72
2021/01/09 00:57:47;;;;;;;4.22;3.92;;;;;;;2.56;73.23;101033.63;5055801;28;20056;-71
2021/01/09 01:00:13;;;;;;;8.23;7.47;;;;;;;2.58;72.35;101015.34;5032631;28;20124;-70
2021/01/09 01:02:38;;;;;;;8.65;7.72;;;;;;;2.51;72.92;101013.66;5053216;28;20539;-72
2021/01/09 01:05:05;;;;;;;7.05;6.43;;;;;;;2.50;73.32;101018.25;5080024;28;20040;-72
2021/01/09 01:07:34;;;;;;;7.40;6.72;;;;;;;2.54;73.54;101022.22;5063092;28;20028;-71
2021/01/09 01:10:00;;;;;;;7.97;7.28;;;;;;;2.59;72.77;101033.25;5047233;28;20483;-72
2021/01/09 01:12:25;;;;;;;6.07;5.22;;;;;;;2.54;73.35;101024.91;5030548;28;20040;-74
2021/01/09 01:14:51;;;;;;;6.15;4.80;;;;;;;2.57;72.93;101027.22;5019593;28;20024;-73
2021/01/09 01:17:16;;;;;;;4.28;3.95;;;;;;;2.60;73.72;101028.69;5009653;28;20719;-73
2021/01/09 01:19:44;;;;;;;5.28;4.88;;;;;;;2.60;73.06;101037.63;5033589;28;20021;-72
2021/01/09 01:22:10;;;;;;;8.25;7.45;;;;;;;2.59;73.20;101035.94;5048189;28;20170;-72
2021/01/09 01:24:35;;;;;;;6.68;6.05;;;;;;;2.56;73.15;101033.63;5023292;28;20127;-73
2021/01/09 01:27:01;;;;;;;10.90;7.88;;;;;;;2.57;73.07;101035.31;5040359;28;20043;-73
2021/01/09 01:29:26;;;;;;;6.60;5.93;;;;;;;2.65;72.77;101038.91;5062974;28;20111;-73
2021/01/09 01:31:51;;;;;;;10.52;6.97;;;;;;;2.67;72.94;101042.22;5041837;28;20037;-74
2021/01/09 01:34:17;;;;;;;9.75;7.15;;;;;;;2.60;72.61;101029.50;5018113;28;20052;-72
2021/01/09 01:36:49;;;;;;;6.15;5.65;;;;;;;2.59;72.88;101035.94;5049499;28;20024;-73
2021/01/09 01:39:15;;;;;;;9.98;6.47;;;;;;;2.62;72.72;101040.94;5043685;28;20458;-73
2021/01/09 01:41:40;;;;;;;6.38;5.63;;;;;;;2.60;72.88;101044.91;5046726;28;20029;-72
2021/01/09 01:44:06;;;;;;;7.25;6.53;;;;;;;2.72;73.21;101047.88;5017411;28;20029;-73
2021/01/09 01:46:31;;;;;;;7.20;5.13;;;;;;;2.74;73.89;101056.59;5033864;28;20024;-72
2021/01/09 01:48:57;;;;;;;9.63;7.00;;;;;;;2.77;73.04;101050.78;5023582;28;20036;-72
2021/01/09 01:51:22;;;;;;;10.48;7.13;;;;;;;2.82;72.95;101059.16;5045401;28;20043;-73
2021/01/09 01:53:49;;;;;;;8.77;7.00;;;;;;;2.84;73.39;101070.56;5028707;28;20077;-74
2021/01/09 01:56:16;;;;;;;7.25;6.55;;;;;;;2.81;73.58;101068.28;5033297;28;20119;-73
2021/01/09 01:58:41;;;;;;;8.65;6.22;;;;;;;2.76;73.05;101065.31;5059377;28;20051;-72
2021/01/09 02:01:09;;;;;;;9.68;6.03;;;;;;;2.71;73.22;101068.63;5033517;28;20406;-72
2021/01/09 02:03:35;;;;;;;11.85;4.60;;;;;;;2.80;73.16;101069.31;5057114;28;20020;-72
2021/01/09 02:06:11;;;;;;;4.53;3.65;;;;;;;2.86;73.89;101073.94;5043935;28;20028;-72
2021/01/09 02:08:53;;;;;;;5.05;4.57;;;;;;;2.90;72.92;101077.06;5052367;28;20027;-71
2021/01/09 02:11:31;;;;;;;4.72;4.40;;;;;;;2.86;73.56;101071.22;5042925;28;20033;-71
2021/01/09 02:14:02;;;;;;;6.10;5.50;;;;;;;2.84;73.76;101084.09;5069428;28;20386;-71
2021/01/09 02:16:29;;;;;;;6.40;5.72;;;;;;;2.79;73.03;101086.56;5053746;28;20028;-72
2021/01/09 02:18:55;;;;;;;6.43;5.80;;;;;;;2.76;72.82;101084.22;5070257;28;20037;-72
2021/01/09 02:21:35;;;;;;;6.55;5.88;;;;;;;2.77;73.83;101089.47;5026034;28;20024;-72
2021/01/09 02:24:15;;;;;;;3.83;3.53;;;;;;;2.76;73.89;101097.72;5052383;28;20025;-72
2021/01/09 02:26:52;;;;;;;2.60;2.35;;;;;;;2.70;73.53;101088.59;5041427;28;20043;-73
2021/01/09 02:29:21;;;;;;;3.83;3.53;;;;;;;2.71;74.02;101084.81;5040916;28;20470;-73
2021/01/09 02:32:20;;;;;;;3.35;3.15;;;;;;;2.74;73.51;101089.00;5044197;28;20703;-73
2021/01/09 02:34:55;;;;;;;4.75;4.35;;;;;;;2.73;74.14;101092.72;5048724;28;20036;-72
2021/01/09 02:37:21;;;;;;;3.97;3.10;;;;;;;2.70;74.23;101090.44;5032173;28;20033;-72
2021/01/09 02:39:53;;;;;;;5.93;4.43;;;;;;;2.70;73.80;101093.13;5069222;28;20446;-72
2021/01/09 02:42:28;;;;;;;4.15;3.70;;;;;;;2.68;74.20;101095.22;5029866;28;20025;-72
2021/01/09 02:44:57;;;;;;;4.35;3.58;;;;;;;2.69;73.66;101091.47;5033406;28;20065;-73
2021/01/09 02:47:23;;;;;;;5.82;5.25;;;;;;;2.67;73.72;101094.34;5043225;28;20375;-72
2021/01/09 02:49:51;;;;;;;5.68;4.55;;;;;;;2.74;74.14;101097.09;5036014;28;20041;-71
2021/01/09 02:52:16;;;;;;;4.68;4.38;;;;;;;2.71;74.07;101094.81;5017686;28;20041;-72
2021/01/09 02:54:44;;;;;;;3.50;3.30;;;;;;;2.72;73.78;101101.88;5018701;28;20554;-73
2021/01/09 02:57:09;;;;;;;3.08;2.88;;;;;;;2.75;73.97;101093.38;5020229;28;20033;-73
2021/01/09 02:59:35;;;;;;;2.53;2.42;;;;;;;2.76;73.89;101103.13;5043254;28;20501;-71
2021/01/09 03:02:09;;;;;;;4.07;3.30;;;;;;;2.79;74.51;101100.06;5026665;28;20098;-73
2021/01/09 03:04:40;;;;;;;4.45;4.03;;;;;;;2.78;74.30;101106.50;5027964;28;20028;-72
2021/01/09 03:07:08;;;;;;;7.70;5.97;;;;;;;2.78;73.64;101106.50;5068578;28;20496;-72
2021/01/09 03:09:37;;;;;;;5.82;5.38;;;;;;;2.74;74.24;101110.63;5055977;28;20057;-72
2021/01/09 03:12:02;;;;;;;4.05;3.75;;;;;;;2.64;74.05;101105.56;5049287;28;20048;-74
2021/01/09 03:14:28;;;;;;;8.23;5.80;;;;;;;2.72;74.26;101112.69;5046418;28;20028;-72
2021/01/09 03:16:53;;;;;;;4.75;4.20;;;;;;;2.73;74.27;101114.34;5028881;28;22076;-72
2021/01/09 03:19:21;;;;;;;7.75;5.55;;;;;;;2.74;74.25;101121.41;5031563;28;20064;-71
2021/01/09 03:21:47;;;;;;;9.07;5.78;;;;;;;2.71;74.26;101121.81;5044921;28;20116;-70
2021/01/09 03:24:12;;;;;;;8.20;5.30;;;;;;;2.64;74.49;101110.94;5055341;28;20155;-71
2021/01/09 03:26:37;;;;;;;8.80;6.18;;;;;;;2.67;74.05;101120.53;5038172;28;20131;-71
2021/01/09 03:29:03;;;;;;;7.32;5.68;;;;;;;2.63;73.57;101122.81;5024037;28;20060;-72
2021/01/09 03:31:31;;;;;;;5.70;5.20;;;;;;;2.62;74.06;101129.22;5037046;28;20051;-71
2021/01/09 03:33:57;;;;;;;9.85;5.97;;;;;;;2.57;75.07;101121.72;5051479;28;20562;-73
2021/01/09 03:36:22;;;;;;;7.20;5.15;;;;;;;2.59;73.60;101125.03;5014192;28;20029;-73
2021/01/09 03:38:47;;;;;;;5.60;4.25;;;;;;;2.58;74.63;101128.78;5025210;28;20044;-72
2021/01/09 03:41:13;;;;;;;3.67;3.38;;;;;;;2.55;74.24;101129.16;5049644;28;20029;-73
2021/01/09 03:43:38;;;;;;;4.78;4.32;;;;;;;2.60;74.08;101132.13;5031209;28;20394;-73
2021/01/09 03:46:04;;;;;;;6.25;5.07;;;;;;;2.59;74.31;101133.16;5044717;28;20029;-73
2021/01/09 03:48:29;;;;;;;6.10;4.53;;;;;;;2.55;74.11;101134.56;5040381;28;20063;-74
2021/01/09 03:50:54;;;;;;;3.42;3.13;;;;;;;2.57;74.14;101137.94;5066940;28;20131;-72
2021/01/09 03:53:23;;;;;;;5.40;4.88;;;;;;;2.61;74.17;101139.22;5026415;28;20528;-73
2021/01/09 03:55:48;;;;;;;5.30;4.80;;;;;;;2.56;74.29;101138.94;5057954;28;20037;-73
2021/01/09 03:58:17;;;;;;;5.45;3.38;;;;;;;2.57;74.47;101135.22;5045637;28;20036;-72
2021/01/09 04:00:42;;;;;;;9.10;5.72;;;;;;;2.58;74.46;101134.16;5069504;28;20394;-73
2021/01/09 04:03:10;;;;;;;6.07;4.45;;;;;;;2.53;74.05;101141.22;5028333;28;20036;-72
2021/01/09 04:05:36;;;;;;;5.45;4.00;;;;;;;2.49;73.87;101135.34;5030382;28;20063;-73
2021/01/09 04:08:01;;;;;;;7.32;5.65;;;;;;;2.51;74.09;101144.13;5031491;28;20063;-72
2021/01/09 04:10:27;;;;;;;8.52;6.18;;;;;;;2.49;74.20;101137.22;5045013;28;20399;-73
2021/01/09 04:12:52;;;;;;;5.80;4.43;;;;;;;2.47;74.76;101144.66;5066355;28;20081;-72
2021/01/09 04:15:17;;;;;;;5.57;4.47;;;;;;;2.51;74.89;101143.25;5030303;28;20052;-71
2021/01/09 04:17:49;;;;;;;7.45;5.35;;;;;;;2.54;74.98;101149.13;5066558;28;20050;-71
2021/01/09 04:20:17;;;;;;;5.65;5.15;;;;;;;2.55;73.92;101150.75;5039263;28;20081;-71
2021/01/09 04:22:42;;;;;;;6.18;3.92;;;;;;;2.58;73.94;101144.97;5059386;28;20024;-71
2021/01/09 04:25:11;;;;;;;4.43;3.90;;;;;;;2.67;73.90;101147.53;5058572;28;20489;-71
2021/01/09 04:27:39;;;;;;;5.95;3.08;;;;;;;2.69;74.12;101150.91;5064472;28;20013;-72
2021/01/09 04:30:05;;;;;;;4.47;3.65;;;;;;;2.73;74.54;101161.09;5055578;28;20024;-72
2021/01/09 04:32:41;;;;;;;3.40;3.08;;;;;;;2.71;74.13;101160.44;5023078;28;20025;-72
2021/01/09 04:35:07;;;;;;;4.95;3.72;;;;;;;2.70;74.13;101158.81;5005016;28;20483;-73
2021/01/09 04:37:36;;;;;;;4.00;3.70;;;;;;;2.70;74.38;101157.94;5076726;28;20039;-72
2021/01/09 04:40:09;;;;;;;11.68;4.53;;;;;;;2.70;73.91;101164.22;5058850;28;20025;-70
2021/01/09 04:42:41;;;;;;;4.47;3.05;;;;;;;2.67;73.81;101161.03;5069876;28;20467;-70
2021/01/09 04:45:13;;;;;;;2.92;1.88;;;;;;;2.63;74.56;101157.91;5059552;28;20039;-73
2021/01/09 04:47:40;;;;;;;3.17;2.85;;;;;;;2.70;73.87;101160.66;5020193;28;20027;-73
2021/01/09 04:50:07;;;;;;;9.75;3.53;;;;;;;2.69;74.25;101156.31;5031129;28;20129;-73
2021/01/09 04:52:42;;;;;;;4.40;1.77;;;;;;;2.68;74.16;101149.22;5046979;28;20479;-73
2021/01/09 04:55:13;;;;;;;1.92;1.77;;;;;;;2.76;74.13;101157.16;5025906;28;20047;-73
2021/01/09 04:57:42;;;;;;;3.03;2.55;;;;;;;2.81;73.93;101165.53;5046254;28;20591;-72
2021/01/09 05:00:11;;;;;;;5.38;2.63;;;;;;;2.76;73.64;101162.56;5047731;28;20035;-72
2021/01/09 05:02:37;;;;;;;2.90;2.58;;;;;;;2.70;74.50;101155.25;5047246;28;20064;-73
2021/01/09 05:05:04;;;;;;;3.65;3.33;;;;;;;2.73;74.19;101157.56;5047367;28;20485;-73
2021/01/09 05:07:29;;;;;;;6.07;3.70;;;;;;;2.74;74.51;101161.94;5028430;28;20028;-73
2021/01/09 05:10:01;;;;;;;3.83;3.53;;;;;;;2.75;74.10;101174.41;5032535;28;20032;-73
2021/01/09 05:12:34;;;;;;;3.95;3.55;;;;;;;2.75;74.25;101171.72;5040910;28;20070;-73
2021/01/09 05:15:01;;;;;;;6.93;3.75;;;;;;;2.76;74.69;101178.75;5044607;28;20024;-72
2021/01/09 05:17:26;;;;;;;4.75;2.70;;;;;;;2.74;74.30;101175.44;5047855;28;20040;-73
2021/01/09 05:19:57;;;;;;;2.95;2.72;;;;;;;2.66;74.44;101168.31;5061454;28;20024;-74
2021/01/09 05:22:23;;;;;;;4.22;2.97;;;;;;;2.74;74.32;101181.66;5033293;28;20071;-74
2021/01/09 05:24:52;;;;;;;4.72;3.70;;;;;;;2.84;75.01;101189.44;5035822;28;20048;-73
2021/01/09 05:27:20;;;;;;;4.07;2.47;;;;;;;2.84;73.68;101197.53;5037343;28;20390;-73
2021/01/09 05:29:54;;;;;;;2.63;2.42;;;;;;;2.89;74.25;101195.09;5049071;28;20037;-72
2021/01/09 05:32:21;;;;;;;6.03;3.03;;;;;;;2.93;74.24;101196.34;5049732;28;20116;-72
2021/01/09 05:34:48;;;;;;;4.32;2.97;;;;;;;2.91;74.45;101203.84;5058728;28;20140;-72
2021/01/09 05:37:22;;;;;;;4.65;2.92;;;;;;;2.93;73.54;101201.75;5049810;28;20039;-70
2021/01/09 05:39:51;;;;;;;2.85;2.53;;;;;;;2.89;74.54;101203.22;5073219;28;20412;-71
2021/01/09 05:42:20;;;;;;;3.22;2.55;;;;;;;2.88;73.99;101196.13;5036285;28;20048;-71
2021/01/09 05:44:46;;;;;;;2.78;2.63;;;;;;;2.87;74.28;101213.34;5072514;28;20082;-71
2021/01/09 05:47:12;;;;;;;3.10;2.45;;;;;;;2.89;73.92;101216.72;5070306;28;20055;-71
2021/01/09 05:49:44;;;;;;;2.05;1.85;;;;;;;2.90;74.48;101218.38;5048158;28;20426;-71
2021/01/09 05:52:11;;;;;;;3.33;2.53;;;;;;;2.88;73.59;101214.22;5067179;28;20025;-70
2021/01/09 05:54:37;;;;;;;1.15;1.15;;;;;;;2.84;74.53;101219.16;5065451;28;20035;-71
2021/01/09 05:57:05;;;;;;;2.65;2.35;;;;;;;2.84;73.97;101221.03;5042520;28;20025;-73
2021/01/09 05:59:32;;;;;;;2.30;1.77;;;;;;;2.86;73.86;101221.66;5032969;28;20434;-71
2021/01/09 06:01:59;;;;;;;2.85;2.65;;;;;;;2.82;74.52;101226.63;5065343;28;20051;-70
2021/01/09 06:04:31;;;;;;;4.50;2.58;;;;;;;2.81;74.30;101224.13;5066307;28;20103;-70
2021/01/09 06:07:06;;;;;;;6.40;2.80;;;;;;;2.83;73.94;101233.69;5066447;28;20066;-70
2021/01/09 06:09:42;;;;;;;7.68;3.60;;;;;;;2.84;74.50;101243.47;5038952;28;20745;-71
2021/01/09 06:12:11;;;;;;;4.53;3.55;;;;;;;2.78;74.19;101225.34;5045890;28;20446;-70
2021/01/09 06:14:47;;;;;;;5.03;3.13;;;;;;;2.83;73.80;101233.69;5062950;28;20459;-71
2021/01/09 06:17:13;;;;;;;3.08;2.78;;;;;;;2.81;74.70;101233.06;5070789;28;20025;-70
2021/01/09 06:19:39;;;;;;;2.05;1.85;;;;;;;2.80;74.12;101231.38;5059839;28;20121;-71
2021/01/09 06:22:05;;;;;;;2.25;2.08;;;;;;;2.80;74.29;101228.66;5064405;28;20417;-72
2021/01/09 06:24:30;;;;;;;3.78;2.15;;;;;;;2.78;74.94;101230.75;5062484;28;20033;-71
2021/01/09 06:26:56;;;;;;;3.30;3.00;;;;;;;2.85;75.07;101237.03;5066642;28;20102;-72
2021/01/09 06:29:25;;;;;;;2.15;2.05;;;;;;;2.84;74.32;101232.66;5035893;28;20537;-72
2021/01/09 06:31:55;;;;;;;2.88;2.63;;;;;;;2.80;74.00;101228.66;5061503;28;20028;-70
2021/01/09 06:34:23;;;;;;;2.47;2.30;;;;;;;2.85;74.97;101237.03;5075421;28;20021;-71
2021/01/09 06:37:03;;;;;;;5.22;2.85;;;;;;;2.90;74.06;101237.28;5083949;28;20082;-70
2021/01/09 06:39:38;;;;;;;2.90;2.63;;;;;;;2.92;74.26;101243.34;5053468;28;20016;-71
2021/01/09 06:42:06;;;;;;;2.78;2.50;;;;;;;2.89;74.86;101243.72;5050347;28;20064;-72
2021/01/09 06:44:32;;;;;;;2.33;2.13;;;;;;;2.92;74.07;101247.88;5045086;28;20028;-71
2021/01/09 06:46:58;;;;;;;2.30;2.10;;;;;;;2.92;74.50;101248.75;5050607;28;20036;-71
2021/01/09 06:49:25;;;;;;;4.30;3.00;;;;;;;2.93;74.45;101253.09;5043352;28;20103;-71
2021/01/09 06:52:02;;;;;;;6.57;1.90;;;;;;;2.95;75.14;101259.16;5062716;28;20131;-71
2021/01/09 06:54:37;;;;;;;3.72;2.83;;;;;;;3.01;74.96;101262.09;5056952;28;20021;-70
2021/01/09 06:57:02;;;;;;;3.08;2.33;;;;;;;3.02;74.61;101261.06;5067683;28;20032;-72
2021/01/09 06:59:35;;;;;;;6.00;2.88;;;;;;;3.03;74.98;101260.88;5053349;28;20112;-73
2021/01/09 07:02:20;;;;;;;4.25;2.97;;;;;;;3.00;74.76;101255.03;5067909;28;20031;-73
2021/01/09 07:04:56;;;;;;;4.75;3.00;;;;;;;3.01;74.50;101264.78;5054936;28;20024;-73
2021/01/09 07:07:32;;;;;;;3.58;3.28;;;;;;;3.02;75.04;101266.47;5033020;28;20035;-73
2021/01/09 07:10:03;;;;;;;2.30;2.20;;;;;;;3.01;75.27;101262.94;5035629;28;20115;-72
2021/01/09 07:12:30;;;;;;;3.25;2.45;;;;;;;3.03;74.50;101270.84;5049644;28;20056;-72
2021/01/09 07:15:22;;;;;;;2.13;1.92;;;;;;;3.06;74.53;101270.47;5036715;28;20063;-73
2021/01/09 07:17:52;;;;;;;1.88;1.70;;;;;;;3.03;74.40;101268.97;5027025;28;20132;-72
2021/01/09 07:20:20;;;;;;;3.63;2.08;;;;;;;3.05;75.10;101274.19;5053362;28;20023;-72
2021/01/09 07:22:49;;;;;;;2.08;1.98;;;;;;;3.07;74.46;101280.25;5063592;28;20032;-73
2021/01/09 07:25:27;;;;;;;1.75;1.10;;;;;;;3.01;74.09;101268.34;5062354;28;20013;-73
2021/01/09 07:27:57;;;;;;;2.53;2.17;;;;;;;3.04;74.23;101277.91;5054202;28;20032;-73
2021/01/09 07:30:29;;;;;;;1.80;1.65;;;;;;;3.04;74.38;101286.03;5046523;28;20108;-72
2021/01/09 07:32:55;;;;;;;2.13;1.92;;;;;;;3.04;74.94;101286.03;5069529;28;20119;-71
2021/01/09 07:35:31;;;;;;;1.88;1.48;;;;;;;3.06;74.02;101294.78;5072575;28;20016;-73
2021/01/09 07:38:01;;;;;;;1.80;1.58;;;;;;;3.02;74.12;101286.22;5046854;28;20028;-73
2021/01/09 07:40:45;;;;;;;3.50;2.15;;;;;;;3.06;74.60;101300.19;5047348;28;20017;-72
2021/01/09 07:43:41;;;;;;;3.13;2.08;;;;;;;3.03;73.96;101298.72;5040440;28;20052;-73
2021/01/09 07:46:31;;;;;;;2.37;2.17;;;;;;;3.01;74.05;101303.47;5042882;28;20449;-76
2021/01/09 07:48:59;;;;;;;3.20;1.75;;;;;;;3.00;74.05;101298.28;5066218;28;20341;-75
2021/01/09 07:51:50;;;;;;;2.53;1.98;;;;;;;2.95;75.19;101291.59;5054075;28;20040;-78
2021/01/09 07:54:29;;;;;;;1.52;1.42;;;;;;;2.99;74.02;101307.41;5033090;28;20072;-76
2021/01/09 07:56:54;;;;;;;2.92;2.67;;;;;;;2.97;75.15;101299.50;5008227;28;20029;-74
2021/01/09 07:59:20;;;;;;;2.90;2.08;;;;;;;2.99;74.89;101302.81;5026911;28;20083;-75
2021/01/09 08:01:45;;;;;;;2.35;2.15;;;;;;;3.05;74.67;101306.63;5013048;28;20043;-77
2021/01/09 08:04:12;;;;;;;2.95;2.58;;;;;;;3.04;73.96;101305.78;5007449;28;20069;-75
2021/01/09 08:06:41;;;;;;;3.17;2.88;;;;;;;3.03;74.26;101297.88;5024730;28;20033;-75
2021/01/09 08:09:10;;;;;;;1.98;1.73;;;;;;;2.95;75.28;101291.59;5018533;28;20464;-78
2021/01/09 08:11:43;;;;;;;1.88;1.77;;;;;;;3.07;74.58;101316.22;5043149;28;20392;-77
2021/01/09 08:14:10;;;;;;;3.78;2.90;;;;;;;3.02;74.83;101313.25;5015055;28;20120;-74
2021/01/09 08:16:38;;;;;;;3.28;2.97;;;;;;;3.00;75.10;101319.88;5015985;28;20495;-77
2021/01/09 08:19:29;;;;;;;3.13;2.92;;;;;;;2.99;74.56;101329.03;5014612;28;20037;-77
2021/01/09 08:21:54;;;;;;;3.08;2.60;;;;;;;2.94;74.93;101329.59;5027614;28;20024;-78
2021/01/09 08:24:26;;;;;;;2.38;2.17;;;;;;;2.92;74.96;101329.81;5034995;28;20025;-77
2021/01/09 08:26:53;;;;;;;1.88;1.77;;;;;;;2.99;75.10;101342.53;5029024;28;20085;-76
2021/01/09 08:29:21;;;;;;;1.55;1.45;;;;;;;3.02;75.46;101344.84;5024097;28;20029;-78
2021/01/09 08:31:51;;;;;;;5.78;2.58;;;;;;;2.99;74.90;101332.53;5025740;28;20079;-77
2021/01/09 08:34:21;;;;;;;3.80;2.78;;;;;;;2.96;75.08;101341.03;5026447;28;20414;-74
2021/01/09 08:36:54;;;;;;;4.82;3.15;;;;;;;2.93;74.54;101336.84;5019006;28;20147;-78
2021/01/09 08:39:19;;;;;;;3.50;2.75;;;;;;;2.94;75.31;101349.34;5019055;28;20143;-78
2021/01/09 08:41:45;;;;;;;7.50;3.55;;;;;;;2.94;75.43;101360.16;5016452;28;20102;-77
2021/01/09 08:44:12;;;;;;;2.55;2.10;;;;;;;2.92;74.99;101366.78;4985327;28;20105;-77
2021/01/09 08:46:40;;;;;;;3.28;2.45;;;;;;;2.93;75.68;101365.75;5025307;28;20110;-78
2021/01/09 08:49:07;;;;;;;3.45;1.40;;;;;;;2.95;75.95;101361.00;5031205;28;20609;-78
2021/01/09 08:51:34;;;;;;;1.83;1.70;;;;;;;2.93;75.45;101363.88;5003207;28;20145;-77
2021/01/09 08:54:06;;;;;;;2.58;2.42;;;;;;;3.00;75.29;101373.94;5020103;28;20108;-78
2021/01/09 08:56:35;;;;;;;1.98;1.40;;;;;;;2.99;75.73;101374.97;5023343;28;20017;-78
2021/01/09 08:59:02;;;;;;;3.40;2.25;;;;;;;3.04;74.75;101386.00;5017839;28;20025;-78
2021/01/09 09:01:35;;;;;;;3.13;2.35;;;;;;;3.04;75.00;101375.19;5021358;28;20088;-78
2021/01/09 09:04:04;;;;;;;3.05;2.75;;;;;;;2.96;75.41;101379.72;5026575;28;20081;-78
2021/01/09 09:06:32;;;;;;;1.60;1.50;;;;;;;3.08;75.29;101392.72;5025894;28;20025;-77
2021/01/09 09:13:07;;;;;;;3.08;1.77;;;;;;;3.17;75.42;101402.38;4985287;28;20045;-80
2021/01/09 09:15:44;;;;;;;1.70;1.60;;;;;;;3.14;74.89;101403.59;4979208;28;20046;-77
2021/01/09 09:18:10;;;;;;;2.13;2.03;;;;;;;3.23;75.10;101404.31;5011570;28;20037;-76
2021/01/09 09:20:36;;;;;;;5.45;2.47;;;;;;;3.22;74.78;101399.09;5028876;28;20057;-77
2021/01/09 09:23:19;;;;;;;2.53;1.85;;;;;;;3.36;75.02;101410.84;5030978;28;20026;-74
2021/01/09 09:25:45;;;;;;;2.72;1.77;;;;;;;3.41;74.45;101411.13;5019514;28;20112;-75
2021/01/09 09:28:10;;;;;;;2.55;1.63;;;;;;;3.47;74.30;101407.63;5010997;28;20117;-77
2021/01/09 09:30:37;;;;;;;3.05;2.70;;;;;;;3.54;74.21;101408.53;5036511;28;20480;-75
2021/01/09 09:33:16;;;;;;;2.10;2.00;;;;;;;3.62;74.14;101415.66;5023334;28;20042;-78
2021/01/09 09:35:43;;;;;;;2.40;2.20;;;;;;;3.66;74.49;101412.38;5026961;28;20104;-78
2021/01/09 09:38:10;;;;;;;1.65;1.55;;;;;;;3.71;73.92;101406.38;5034929;28;20078;-77
2021/01/09 09:40:38;;;;;;;2.55;2.35;;;;;;;3.79;73.78;101422.44;5030909;28;21685;-77
2021/01/09 09:43:21;;;;;;;1.95;1.85;;;;;;;3.76;73.06;101411.19;5023878;28;20033;-79
2021/01/09 09:45:59;;;;;;;2.10;1.90;;;;;;;3.72;73.29;101407.22;5019246;28;20534;-79
2021/01/09 09:48:35;;;;;;;2.30;2.10;;;;;;;3.80;73.26;101423.31;4997948;28;20040;-83
2021/01/09 09:51:06;;;;;;;0.88;0.88;;;;;;;3.72;73.64;101399.91;5044116;28;20051;-80
2021/01/09 09:53:35;;;;;;;3.25;1.85;;;;;;;3.74;73.16;101403.28;5049090;28;20032;-78
2021/01/09 09:56:16;;;;;;;1.45;1.00;;;;;;;3.91;73.56;101420.03;5032672;28;20531;-78
2021/01/09 09:58:59;;;;;;;1.27;1.17;;;;;;;3.92;73.77;101416.31;5056375;28;20033;-79
2021/01/09 10:01:24;;;;;;;1.63;1.52;;;;;;;3.98;73.29;101412.81;5043713;28;20482;-77
2021/01/09 10:03:51;;;;;;;1.42;1.33;;;;;;;4.12;73.15;101432.69;5038608;28;20036;-82
2021/01/09 10:06:17;;;;;;;2.95;2.20;;;;;;;4.07;73.12;101415.38;5053745;28;20032;-77
2021/01/09 10:08:43;;;;;;;1.90;1.50;;;;;;;4.17;72.99;101437.50;5051326;28;20111;-78
2021/01/09 10:11:10;;;;;;;1.08;0.95;;;;;;;4.23;73.05;101439.41;5044519;28;20098;-77
2021/01/09 10:13:40;;;;;;;2.88;2.70;;;;;;;4.29;72.63;101432.38;5050299;28;20459;-77
2021/01/09 10:16:05;;;;;;;1.83;1.65;;;;;;;4.46;73.14;101443.72;5057041;28;20042;-77
2021/01/09 10:18:32;;;;;;;1.67;1.58;;;;;;;4.54;73.02;101451.66;5061710;28;20028;-78
2021/01/09 10:21:19;;;;;;;1.92;1.38;;;;;;;4.60;72.66;101433.75;5076436;28;20098;-75
2021/01/09 10:23:46;;;;;;;;;;;;;;;4.76;72.77;101443.41;5056643;28;20028;-77
2021/01/09 10:26:19;;;;;;;3.55;1.63;;;;;;;4.78;72.36;101435.94;5053631;28;19912;-77
2021/01/09 10:28:44;;;;;;;2.03;1.45;;;;;;;4.82;71.77;101439.91;5065403;28;20056;-77
2021/01/09 10:31:09;;;;;;;3.25;2.38;;;;;;;4.80;71.75;101433.84;5067419;28;20067;-77
2021/01/09 10:33:35;;;;;;;2.20;2.00;;;;;;;4.75;71.60;101425.50;5071553;28;20032;-78
2021/01/09 10:36:00;;;;;;;1.90;1.80;;;;;;;4.76;71.87;101427.16;5020376;28;20111;-77
2021/01/09 10:38:26;;;;;;;1.77;1.67;;;;;;;4.75;71.45;101431.75;5048237;28;20031;-77
2021/01/09 10:40:51;;;;;;;0.90;0.90;;;;;;;4.75;71.94;101429.03;5047858;28;20029;-78
2021/01/09 10:43:22;;;;;;;1.02;1.02;;;;;;;4.74;72.10;101419.25;5023195;28;20025;-80
2021/01/09 10:46:36;;;;;;;;;;;;;;;;;;;;;
2021/01/09 10:49:15;;;;;;;;;;;;;;;;;;;;;
2021/01/09 10:51:48;;;;;;;1.35;1.27;;;;;;;4.88;71.38;101409.28;5070658;28;20072;-79
2021/01/09 10:54:21;;;;;;;5.43;1.65;;;;;;;4.96;71.08;101417.22;5042315;28;20044;-79
2021/01/09 10:56:46;;;;;;;1.33;1.10;;;;;;;5.01;70.68;101419.34;5048465;28;20032;-77
2021/01/09 10:59:13;;;;;;;1.13;1.02;;;;;;;5.17;70.97;101426.22;5051551;28;20036;-78
2021/01/09 11:01:38;;;;;;;1.80;1.70;;;;;;;5.24;70.93;101424.38;5047970;28;20021;-79
2021/01/09 11:04:04;;;;;;;1.15;1.08;;;;;;;5.22;71.30;101421.03;5031241;28;20596;-79
2021/01/09 11:06:30;;;;;;;0.85;0.85;;;;;;;5.29;71.10;101424.59;5078208;28;20025;-79
2021/01/09 11:08:55;;;;;;;1.33;1.23;;;;;;;5.30;70.58;101418.16;5059339;28;20100;-79
2021/01/09 11:11:21;;;;;;;2.25;2.05;;;;;;;5.33;70.37;101423.16;5043423;28;20025;-78
2021/01/09 11:13:48;;;;;;;2.80;1.90;;;;;;;5.34;70.25;101413.13;5072643;28;20032;-78
2021/01/09 11:16:24;;;;;;;1.58;1.40;;;;;;;5.38;70.47;101419.81;5040342;28;20027;-78
2021/01/09 11:18:51;;;;;;;1.63;1.52;;;;;;;5.36;69.91;101406.47;5052256;28;20029;-79
2021/01/09 11:21:19;;;;;;;0.98;0.90;;;;;;;5.44;70.23;101415.44;5032818;28;20029;-80
2021/01/09 11:23:45;;;;;;;1.50;0.95;;;;;;;5.49;70.59;101410.22;5054637;28;20052;-79
2021/01/09 11:26:11;;;;;;;1.00;0.80;;;;;;;5.52;70.18;101416.06;5052938;28;20033;-79
2021/01/09 11:28:37;;;;;;;0.60;0.60;;;;;;;5.57;70.34;101416.25;5052000;28;20029;-80
2021/01/09 11:31:06;;;;;;;0.68;0.52;;;;;;;5.58;70.03;101409.81;5029643;28;20016;-78
2021/01/09 11:33:32;;;;;;;1.50;1.40;;;;;;;5.55;69.42;101409.41;5074983;28;20024;-78
2021/01/09 11:36:00;;;;;;;1.88;1.33;;;;;;;5.53;69.30;101416.91;5072234;28;20067;-79
2021/01/09 11:38:25;;;;;;;3.00;2.80;;;;;;;5.48;69.08;101403.97;5037256;28;20032;-79
2021/01/09 11:40:51;;;;;;;3.88;2.83;;;;;;;5.48;68.94;101411.28;5054062;28;20032;-79
2021/01/09 11:43:17;;;;;;;1.75;1.65;;;;;;;5.51;69.41;101410.84;5036593;28;20394;-79
2021/01/09 11:45:43;;;;;;;0.98;0.98;;;;;;;5.51;69.21;101402.72;5054559;28;20050;-82
2021/01/09 11:48:08;;;;;;;0.75;0.75;;;;;;;5.54;69.25;101403.13;5010754;28;20033;-80
2021/01/09 11:50:34;;;;;;;1.25;1.25;;;;;;;5.60;69.24;101399.56;5052741;28;20029;-81